sensor_id;sensor_type;location;lat;lon;timestamp;pressure;altitude;pressure_sealevel;temperature;humidity
68594;BME280;55563;52.416;13.548;2023-02-21T00:00:12;100797.63;;;8.52;100.00
68594;BME280;55563;52.416;13.548;2023-02-21T00:02:33;100795.00;;;8.52;100.00
68594;BME280;55563;52.416;13.548;2023-02-21T00:04:54;100796.81;;;8.51;100.00
68594;BME280;55563;52.416;13.548;2023-02-21T00:07:15;100785.56;;;8.51;100.00
68594;BME280;55563;52.416;13.548;2023-02-21T00:09:37;100789.47;;;8.48;100.00
68594;BME280;55563;52.416;13.548;2023-02-21T00:11:58;100782.84;;;8.46;100.00
68594;BME280;55563;52.416;13.548;2023-02-21T00:14:18;100785.47;;;8.46;100.00
68594;BME280;55563;52.416;13.548;2023-02-21T00:16:39;100778.41;;;8.46;100.00
68594;BME280;55563;52.416;13.548;2023-02-21T00:19:00;100776.03;;;8.45;100.00
68594;BME280;55563;52.416;13.548;2023-02-21T00:21:21;100782.56;;;8.42;100.00
68594;BME280;55563;52.416;13.548;2023-02-21T00:23:42;100772.56;;;8.39;100.00
68594;BME280;55563;52.416;13.548;2023-02-21T00:26:02;100787.22;;;8.40;100.00
68594;BME280;55563;52.416;13.548;2023-02-21T00:28:23;100768.66;;;8.42;100.00
68594;BME280;55563;52.416;13.548;2023-02-21T00:30:43;100761.59;;;8.42;100.00
68594;BME280;55563;52.416;13.548;2023-02-21T00:33:04;100762.63;;;8.41;100.00
68594;BME280;55563;52.416;13.548;2023-02-21T00:35:26;100762.84;;;8.40;100.00
68594;BME280;55563;52.416;13.548;2023-02-21T00:37:50;100752.88;;;8.37;100.00
68594;BME280;55563;52.416;13.548;2023-02-21T00:40:12;100758.91;;;8.37;100.00
68594;BME280;55563;52.416;13.548;2023-02-21T00:42:32;100769.09;;;8.34;100.00
68594;BME280;55563;52.416;13.548;2023-02-21T00:44:53;100764.88;;;8.32;100.00
68594;BME280;55563;52.416;13.548;2023-02-21T00:47:13;100755.41;;;8.31;100.00
68594;BME280;55563;52.416;13.548;2023-02-21T00:49:34;100762.25;;;8.32;100.00
68594;BME280;55563;52.416;13.548;2023-02-21T00:51:55;100764.75;;;8.27;100.00
68594;BME280;55563;52.416;13.548;2023-02-21T00:54:15;100765.56;;;8.28;100.00
68594;BME280;55563;52.416;13.548;2023-02-21T00:56:36;100760.25;;;8.23;100.00
68594;BME280;55563;52.416;13.548;2023-02-21T00:58:56;100770.00;;;8.27;100.00
68594;BME280;55563;52.416;13.548;2023-02-21T01:01:17;100774.44;;;8.27;100.00
68594;BME280;55563;52.416;13.548;2023-02-21T01:03:37;100764.19;;;8.25;100.00
68594;BME280;55563;52.416;13.548;2023-02-21T01:05:58;100755.09;;;8.28;100.00
68594;BME280;55563;52.416;13.548;2023-02-21T01:08:20;100743.50;;;8.24;100.00
68594;BME280;55563;52.416;13.548;2023-02-21T01:10:40;100753.50;;;8.27;100.00
68594;BME280;55563;52.416;13.548;2023-02-21T01:13:02;100741.44;;;8.26;100.00
68594;BME280;55563;52.416;13.548;2023-02-21T01:15:25;100744.63;;;8.28;100.00
68594;BME280;55563;52.416;13.548;2023-02-21T01:17:45;100750.41;;;8.30;100.00
68594;BME280;55563;52.416;13.548;2023-02-21T01:20:06;100748.03;;;8.28;100.00
68594;BME280;55563;52.416;13.548;2023-02-21T01:22:28;100754.88;;;8.29;100.00
68594;BME280;55563;52.416;13.548;2023-02-21T01:24:50;100753.50;;;8.27;100.00
68594;BME280;55563;52.416;13.548;2023-02-21T01:27:11;100748.03;;;8.28;100.00
68594;BME280;55563;52.416;13.548;2023-02-21T01:29:31;100739.38;;;8.28;100.00
68594;BME280;55563;52.416;13.548;2023-02-21T01:31:52;100747.22;;;8.28;100.00
68594;BME280;55563;52.416;13.548;2023-02-21T01:34:13;100747.78;;;8.30;100.00
68594;BME280;55563;52.416;13.548;2023-02-21T01:36:34;100741.78;;;8.29;100.00
68594;BME280;55563;52.416;13.548;2023-02-21T01:38:55;100734.69;;;8.30;100.00
68594;BME280;55563;52.416;13.548;2023-02-21T01:41:15;100735.28;;;8.32;100.00
68594;BME280;55563;52.416;13.548;2023-02-21T01:43:37;100749.16;;;8.32;100.00
68594;BME280;55563;52.416;13.548;2023-02-21T01:45:58;100737.88;;;8.32;100.00
68594;BME280;55563;52.416;13.548;2023-02-21T01:48:20;100739.47;;;8.33;100.00
68594;BME280;55563;52.416;13.548;2023-02-21T01:50:42;100735.84;;;8.34;100.00
68594;BME280;55563;52.416;13.548;2023-02-21T01:53:06;100743.50;;;8.41;100.00
68594;BME280;55563;52.416;13.548;2023-02-21T01:55:28;100727.00;;;8.40;100.00
68594;BME280;55563;52.416;13.548;2023-02-21T01:57:50;100724.94;;;8.42;100.00
68594;BME280;55563;52.416;13.548;2023-02-21T02:00:13;100724.13;;;8.42;100.00
68594;BME280;55563;52.416;13.548;2023-02-21T02:02:44;100725.72;;;8.43;100.00
68594;BME280;55563;52.416;13.548;2023-02-21T02:05:09;100728.34;;;8.43;100.00
68594;BME280;55563;52.416;13.548;2023-02-21T02:07:31;100712.38;;;8.44;100.00
68594;BME280;55563;52.416;13.548;2023-02-21T02:09:52;100709.53;;;8.46;100.00
68594;BME280;55563;52.416;13.548;2023-02-21T02:12:43;100711.41;;;8.50;100.00
68594;BME280;55563;52.416;13.548;2023-02-21T02:32:55;100695.34;;;8.63;100.00
68594;BME280;55563;52.416;13.548;2023-02-21T02:34:48;100695.66;;;8.67;100.00
68594;BME280;55563;52.416;13.548;2023-02-21T02:40:14;100694.38;;;8.69;100.00
68594;BME280;55563;52.416;13.548;2023-02-21T02:42:37;100700.16;;;8.71;100.00
68594;BME280;55563;52.416;13.548;2023-02-21T02:44:33;100697.03;;;8.74;100.00
68594;BME280;55563;52.416;13.548;2023-02-21T02:46:39;100689.75;;;8.77;100.00
68594;BME280;55563;52.416;13.548;2023-02-21T02:48:49;100692.66;;;8.80;100.00
68594;BME280;55563;52.416;13.548;2023-02-21T02:50:53;100691.88;;;8.80;100.00
68594;BME280;55563;52.416;13.548;2023-02-21T02:52:54;100685.81;;;8.79;100.00
68594;BME280;55563;52.416;13.548;2023-02-21T02:55:02;100695.03;;;8.82;100.00
68594;BME280;55563;52.416;13.548;2023-02-21T02:57:05;100694.25;;;8.81;100.00
68594;BME280;55563;52.416;13.548;2023-02-21T02:59:16;100693.47;;;8.81;100.00
68594;BME280;55563;52.416;13.548;2023-02-21T03:07:09;100696.25;;;8.74;100.00
68594;BME280;55563;52.416;13.548;2023-02-21T03:09:00;100700.47;;;8.75;100.00
68594;BME280;55563;52.416;13.548;2023-02-21T03:11:14;100688.16;;;8.75;100.00
68594;BME280;55563;52.416;13.548;2023-02-21T03:13:36;100682.41;;;8.79;100.00
68594;BME280;55563;52.416;13.548;2023-02-21T03:15:48;100682.19;;;8.80;100.00
68594;BME280;55563;52.416;13.548;2023-02-21T03:18:04;100670.66;;;8.81;100.00
68594;BME280;55563;52.416;13.548;2023-02-21T03:20:06;100666.44;;;8.80;100.00
68594;BME280;55563;52.416;13.548;2023-02-21T03:22:13;100675.97;;;8.86;100.00
68594;BME280;55563;52.416;13.548;2023-02-21T03:24:16;100672.56;;;8.86;100.00
68594;BME280;55563;52.416;13.548;2023-02-21T03:26:19;100663.88;;;8.85;100.00
68594;BME280;55563;52.416;13.548;2023-02-21T03:28:24;100667.38;;;8.91;100.00
68594;BME280;55563;52.416;13.548;2023-02-21T03:30:27;100670.22;;;8.89;100.00
68594;BME280;55563;52.416;13.548;2023-02-21T03:32:33;100678.38;;;8.93;100.00
68594;BME280;55563;52.416;13.548;2023-02-21T03:34:46;100676.56;;;8.93;100.00
68594;BME280;55563;52.416;13.548;2023-02-21T03:36:49;100674.72;;;8.94;100.00
68594;BME280;55563;52.416;13.548;2023-02-21T03:38:51;100678.69;;;8.96;100.00
68594;BME280;55563;52.416;13.548;2023-02-21T03:40:52;100685.25;;;8.99;100.00
68594;BME280;55563;52.416;13.548;2023-02-21T03:42:59;100686.06;;;8.99;100.00
68594;BME280;55563;52.416;13.548;2023-02-21T03:45:05;100678.50;;;9.03;100.00
68594;BME280;55563;52.416;13.548;2023-02-21T03:47:06;100682.69;;;9.04;100.00
68594;BME280;55563;52.416;13.548;2023-02-21T03:49:07;100682.69;;;9.04;100.00
68594;BME280;55563;52.416;13.548;2023-02-21T03:51:09;100675.88;;;9.03;100.00
68594;BME280;55563;52.416;13.548;2023-02-21T03:53:10;100677.69;;;9.02;100.00
68594;BME280;55563;52.416;13.548;2023-02-21T03:55:14;100667.75;;;9.04;100.00
68594;BME280;55563;52.416;13.548;2023-02-21T03:57:15;100679.28;;;9.03;100.00
68594;BME280;55563;52.416;13.548;2023-02-21T03:59:18;100682.47;;;9.05;100.00
68594;BME280;55563;52.416;13.548;2023-02-21T04:01:20;100683.72;;;9.03;100.00
68594;BME280;55563;52.416;13.548;2023-02-21T04:03:22;100692.94;;;9.05;100.00
68594;BME280;55563;52.416;13.548;2023-02-21T04:05:28;100694.53;;;9.06;100.00
68594;BME280;55563;52.416;13.548;2023-02-21T04:07:30;100679.34;;;9.08;100.00
68594;BME280;55563;52.416;13.548;2023-02-21T04:09:31;100701.91;;;9.09;100.00
68594;BME280;55563;52.416;13.548;2023-02-21T04:11:31;100699.28;;;9.09;100.00
68594;BME280;55563;52.416;13.548;2023-02-21T04:13:33;100693.00;;;9.10;100.00
68594;BME280;55563;52.416;13.548;2023-02-21T04:15:36;100706.63;;;9.12;100.00
68594;BME280;55563;52.416;13.548;2023-02-21T04:17:37;100700.59;;;9.12;100.00
68594;BME280;55563;52.416;13.548;2023-02-21T04:19:39;100699.56;;;9.13;100.00
68594;BME280;55563;52.416;13.548;2023-02-21T04:21:40;100698.78;;;9.12;100.00
68594;BME280;55563;52.416;13.548;2023-02-21T04:23:43;100710.84;;;9.13;100.00
68594;BME280;55563;52.416;13.548;2023-02-21T04:25:44;100708.22;;;9.13;100.00
68594;BME280;55563;52.416;13.548;2023-02-21T04:27:49;100716.88;;;9.14;100.00
68594;BME280;55563;52.416;13.548;2023-02-21T04:29:51;100701.16;;;9.14;100.00
68594;BME280;55563;52.416;13.548;2023-02-21T04:31:51;100710.63;;;9.15;100.00
68594;BME280;55563;52.416;13.548;2023-02-21T04:33:53;100712.19;;;9.16;100.00
68594;BME280;55563;52.416;13.548;2023-02-21T04:35:57;100718.22;;;9.16;100.00
68594;BME280;55563;52.416;13.548;2023-02-21T04:38:06;100707.19;;;9.14;100.00
68594;BME280;55563;52.416;13.548;2023-02-21T04:40:07;100711.66;;;9.14;100.00
68594;BME280;55563;52.416;13.548;2023-02-21T04:42:09;100707.72;;;9.16;100.00
68594;BME280;55563;52.416;13.548;2023-02-21T04:44:11;100704.31;;;9.16;100.00
68594;BME280;55563;52.416;13.548;2023-02-21T04:46:13;100716.66;;;9.15;100.00
68594;BME280;55563;52.416;13.548;2023-02-21T04:48:17;100700.66;;;9.17;100.00
68594;BME280;55563;52.416;13.548;2023-02-21T04:50:18;100708.22;;;9.13;100.00
68594;BME280;55563;52.416;13.548;2023-02-21T04:52:19;100698.25;;;9.10;100.00
68594;BME280;55563;52.416;13.548;2023-02-21T04:54:20;100706.13;;;9.10;100.00
68594;BME280;55563;52.416;13.548;2023-02-21T04:56:23;100711.81;;;9.07;100.00
68594;BME280;55563;52.416;13.548;2023-02-21T04:58:24;100715.97;;;9.03;100.00
68594;BME280;55563;52.416;13.548;2023-02-21T05:00:24;100712.56;;;9.03;100.00
68594;BME280;55563;52.416;13.548;2023-02-21T05:02:26;100716.72;;;8.99;100.00
68594;BME280;55563;52.416;13.548;2023-02-21T05:04:27;100715.41;;;8.96;100.00
68594;BME280;55563;52.416;13.548;2023-02-21T05:06:29;100718.19;;;8.90;100.00
68594;BME280;55563;52.416;13.548;2023-02-21T05:08:30;100717.16;;;8.91;100.00
68594;BME280;55563;52.416;13.548;2023-02-21T05:10:30;100726.00;;;8.85;100.00
68594;BME280;55563;52.416;13.548;2023-02-21T05:12:31;100732.31;;;8.89;100.00
68594;BME280;55563;52.416;13.548;2023-02-21T05:14:32;100728.13;;;8.88;100.00
68594;BME280;55563;52.416;13.548;2023-02-21T05:16:32;100733.78;;;8.80;100.00
68594;BME280;55563;52.416;13.548;2023-02-21T05:18:33;100732.28;;;8.84;100.00
68594;BME280;55563;52.416;13.548;2023-02-21T05:20:36;100731.75;;;8.82;100.00
68594;BME280;55563;52.416;13.548;2023-02-21T05:22:38;100725.19;;;8.84;100.00
68594;BME280;55563;52.416;13.548;2023-02-21T05:24:40;100730.38;;;8.79;100.00
68594;BME280;55563;52.416;13.548;2023-02-21T05:26:41;100734.59;;;8.80;100.00
68594;BME280;55563;52.416;13.548;2023-02-21T05:28:42;100723.09;;;8.81;100.00
68594;BME280;55563;52.416;13.548;2023-02-21T05:30:43;100739.84;;;8.80;100.00
68594;BME280;55563;52.416;13.548;2023-02-21T05:32:44;100734.34;;;8.82;100.00
68594;BME280;55563;52.416;13.548;2023-02-21T05:34:45;100742.22;;;8.82;100.00
68594;BME280;55563;52.416;13.548;2023-02-21T05:36:47;100742.22;;;8.82;100.00
68594;BME280;55563;52.416;13.548;2023-02-21T05:38:51;100733.28;;;8.83;100.00
68594;BME280;55563;52.416;13.548;2023-02-21T05:40:52;100735.91;;;8.83;100.00
68594;BME280;55563;52.416;13.548;2023-02-21T05:42:53;100739.28;;;8.78;100.00
68594;BME280;55563;52.416;13.548;2023-02-21T05:44:54;100737.94;;;8.75;100.00
68594;BME280;55563;52.416;13.548;2023-02-21T05:46:55;100733.72;;;8.74;100.00
68594;BME280;55563;52.416;13.548;2023-02-21T05:48:56;100743.41;;;8.74;100.00
68594;BME280;55563;52.416;13.548;2023-02-21T05:50:58;100744.44;;;8.73;100.00
68594;BME280;55563;52.416;13.548;2023-02-21T05:52:59;100753.84;;;8.69;100.00
68594;BME280;55563;52.416;13.548;2023-02-21T05:55:00;100749.88;;;8.66;100.00
68594;BME280;55563;52.416;13.548;2023-02-21T05:57:00;100762.41;;;8.64;100.00
68594;BME280;55563;52.416;13.548;2023-02-21T05:59:01;100755.59;;;8.63;100.00
68594;BME280;55563;52.416;13.548;2023-02-21T06:01:03;100757.19;;;8.64;100.00
68594;BME280;55563;52.416;13.548;2023-02-21T06:03:03;100762.41;;;8.64;100.00
68594;BME280;55563;52.416;13.548;2023-02-21T06:05:04;100769.97;;;8.61;100.00
68594;BME280;55563;52.416;13.548;2023-02-21T06:07:06;100771.56;;;8.62;100.00
68594;BME280;55563;52.416;13.548;2023-02-21T06:09:07;100777.59;;;8.62;100.00
68594;BME280;55563;52.416;13.548;2023-02-21T06:11:08;100776.00;;;8.61;100.00
68594;BME280;55563;52.416;13.548;2023-02-21T06:13:09;100780.47;;;8.61;100.00
68594;BME280;55563;52.416;13.548;2023-02-21T06:15:10;100786.72;;;8.60;100.00
68594;BME280;55563;52.416;13.548;2023-02-21T06:17:12;100781.97;;;8.57;100.00
68594;BME280;55563;52.416;13.548;2023-02-21T06:19:14;100791.97;;;8.60;100.00
68594;BME280;55563;52.416;13.548;2023-02-21T06:21:16;100791.97;;;8.60;100.00
68594;BME280;55563;52.416;13.548;2023-02-21T06:23:16;100798.81;;;8.61;100.00
68594;BME280;55563;52.416;13.548;2023-02-21T06:25:17;100798.00;;;8.60;100.00
68594;BME280;55563;52.416;13.548;2023-02-21T06:27:18;100802.72;;;8.58;100.00
68594;BME280;55563;52.416;13.548;2023-02-21T06:29:19;100804.28;;;8.59;100.00
68594;BME280;55563;52.416;13.548;2023-02-21T06:31:20;100802.94;;;8.57;100.00
68594;BME280;55563;52.416;13.548;2023-02-21T06:33:21;100808.97;;;8.57;100.00
68594;BME280;55563;52.416;13.548;2023-02-21T06:35:22;100813.41;;;8.57;100.00
68594;BME280;55563;52.416;13.548;2023-02-21T06:37:23;100810.56;;;8.58;100.00
68594;BME280;55563;52.416;13.548;2023-02-21T06:39:24;100815.00;;;8.58;100.00
68594;BME280;55563;52.416;13.548;2023-02-21T06:41:28;100817.56;;;8.53;100.00
68594;BME280;55563;52.416;13.548;2023-02-21T06:43:29;100822.88;;;8.58;100.00
68594;BME280;55563;52.416;13.548;2023-02-21T06:45:29;100828.91;;;8.58;100.00
68594;BME280;55563;52.416;13.548;2023-02-21T06:47:30;100825.88;;;8.50;100.00
68594;BME280;55563;52.416;13.548;2023-02-21T06:49:31;100829.38;;;8.55;100.00
68594;BME280;55563;52.416;13.548;2023-02-21T06:51:35;100831.19;;;8.55;100.00
68594;BME280;55563;52.416;13.548;2023-02-21T06:53:36;100831.75;;;8.57;100.00
68594;BME280;55563;52.416;13.548;2023-02-21T06:55:37;100838.81;;;8.56;100.00
68594;BME280;55563;52.416;13.548;2023-02-21T06:57:38;100841.66;;;8.55;100.00
68594;BME280;55563;52.416;13.548;2023-02-21T06:59:38;100842.25;;;8.57;100.00
68594;BME280;55563;52.416;13.548;2023-02-21T07:01:40;100857.72;;;8.58;100.00
68594;BME280;55563;52.416;13.548;2023-02-21T07:03:41;100856.66;;;8.59;100.00
68594;BME280;55563;52.416;13.548;2023-02-21T07:05:43;100860.09;;;8.60;100.00
68594;BME280;55563;52.416;13.548;2023-02-21T07:07:45;100860.09;;;8.60;100.00
68594;BME280;55563;52.416;13.548;2023-02-21T07:09:46;100871.13;;;8.62;100.00
68594;BME280;55563;52.416;13.548;2023-02-21T07:11:46;100872.66;;;8.58;100.00
68594;BME280;55563;52.416;13.548;2023-02-21T07:13:50;100876.84;;;8.59;100.00
68594;BME280;55563;52.416;13.548;2023-02-21T07:15:51;100878.13;;;8.56;100.00
68594;BME280;55563;52.416;13.548;2023-02-21T07:17:52;100878.91;;;8.57;100.00
68594;BME280;55563;52.416;13.548;2023-02-21T07:19:52;100885.75;;;8.58;100.00
68594;BME280;55563;52.416;13.548;2023-02-21T07:21:53;100897.56;;;8.60;100.00
68594;BME280;55563;52.416;13.548;2023-02-21T07:23:54;100894.13;;;8.60;100.00
68594;BME280;55563;52.416;13.548;2023-02-21T07:25:55;100901.78;;;8.61;100.00
68594;BME280;55563;52.416;13.548;2023-02-21T07:27:56;100900.19;;;8.60;100.00
68594;BME280;55563;52.416;13.548;2023-02-21T07:29:57;100898.34;;;8.61;100.00
68594;BME280;55563;52.416;13.548;2023-02-21T07:31:57;100903.03;;;8.59;100.00
68594;BME280;55563;52.416;13.548;2023-02-21T07:33:58;100904.16;;;8.63;100.00
68594;BME280;55563;52.416;13.548;2023-02-21T07:35:59;100908.13;;;8.65;100.00
68594;BME280;55563;52.416;13.548;2023-02-21T07:38:00;100911.78;;;8.64;100.00
68594;BME280;55563;52.416;13.548;2023-02-21T07:40:01;100908.69;;;8.67;100.00
68594;BME280;55563;52.416;13.548;2023-02-21T07:42:03;100909.50;;;8.68;100.00
68594;BME280;55563;52.416;13.548;2023-02-21T07:44:26;100914.00;;;8.72;100.00
68594;BME280;55563;52.416;13.548;2023-02-21T07:46:28;100921.94;;;8.78;100.00
68594;BME280;55563;52.416;13.548;2023-02-21T07:48:28;100921.69;;;8.79;100.00
68594;BME280;55563;52.416;13.548;2023-02-21T07:50:29;100919.06;;;8.79;100.00
68594;BME280;55563;52.416;13.548;2023-02-21T07:52:30;100918.28;;;8.79;100.00
68594;BME280;55563;52.416;13.548;2023-02-21T07:54:31;100919.88;;;8.80;100.00
68594;BME280;55563;52.416;13.548;2023-02-21T07:56:31;100915.34;;;8.75;100.00
68594;BME280;55563;52.416;13.548;2023-02-21T07:58:32;100919.56;;;8.76;100.00
68594;BME280;55563;52.416;13.548;2023-02-21T08:00:36;100910.97;;;8.81;100.00
68594;BME280;55563;52.416;13.548;2023-02-21T08:02:37;100921.78;;;8.84;100.00
68594;BME280;55563;52.416;13.548;2023-02-21T08:04:38;100924.16;;;8.86;100.00
68594;BME280;55563;52.416;13.548;2023-02-21T08:06:39;100928.13;;;8.88;100.00
68594;BME280;55563;52.416;13.548;2023-02-21T08:08:40;100929.22;;;8.92;100.00
68594;BME280;55563;52.416;13.548;2023-02-21T08:10:40;100930.59;;;8.95;100.00
68594;BME280;55563;52.416;13.548;2023-02-21T08:12:41;100941.31;;;8.93;100.00
68594;BME280;55563;52.416;13.548;2023-02-21T08:14:42;100933.44;;;8.93;100.00
68594;BME280;55563;52.416;13.548;2023-02-21T08:16:43;100945.50;;;8.94;100.00
68594;BME280;55563;52.416;13.548;2023-02-21T08:18:46;100945.28;;;8.96;100.00
68594;BME280;55563;52.416;13.548;2023-02-21T08:20:47;100941.63;;;8.97;100.00
68594;BME280;55563;52.416;13.548;2023-02-21T08:22:47;100951.00;;;9.09;100.00
68594;BME280;55563;52.416;13.548;2023-02-21T08:24:49;100936.66;;;9.17;100.00
68594;BME280;55563;52.416;13.548;2023-02-21T08:26:50;100938.09;;;9.25;100.00
68594;BME280;55563;52.416;13.548;2023-02-21T08:28:51;100942.19;;;9.37;100.00
68594;BME280;55563;52.416;13.548;2023-02-21T08:30:52;100937.91;;;9.31;100.00
68594;BME280;55563;52.416;13.548;2023-02-21T08:32:53;100937.91;;;9.31;100.00
68594;BME280;55563;52.416;13.548;2023-02-21T08:34:54;100936.78;;;9.44;100.00
68594;BME280;55563;52.416;13.548;2023-02-21T08:36:55;100933.06;;;9.40;100.00
68594;BME280;55563;52.416;13.548;2023-02-21T08:38:56;100937.25;;;9.41;100.00
68594;BME280;55563;52.416;13.548;2023-02-21T08:40:56;100934.28;;;9.54;100.00
68594;BME280;55563;52.416;13.548;2023-02-21T08:43:06;100937.38;;;9.51;100.00
68594;BME280;55563;52.416;13.548;2023-02-21T08:45:10;100942.88;;;9.49;100.00
68594;BME280;55563;52.416;13.548;2023-02-21T08:45:14;100942.88;;;9.49;100.00
68594;BME280;55563;52.416;13.548;2023-02-21T08:47:16;100932.81;;;9.63;100.00
68594;BME280;55563;52.416;13.548;2023-02-21T08:49:17;100936.19;;;9.58;100.00
68594;BME280;55563;52.416;13.548;2023-02-21T08:51:23;100938.38;;;9.67;100.00
68594;BME280;55563;52.416;13.548;2023-02-21T08:53:24;100931.66;;;9.76;100.00
68594;BME280;55563;52.416;13.548;2023-02-21T08:55:25;100933.47;;;9.75;100.00
68594;BME280;55563;52.416;13.548;2023-02-21T08:57:25;100936.31;;;9.69;100.00
68594;BME280;55563;52.416;13.548;2023-02-21T08:59:26;100933.19;;;9.72;100.00
68594;BME280;55563;52.416;13.548;2023-02-21T09:01:32;100941.59;;;9.74;100.00
68594;BME280;55563;52.416;13.548;2023-02-21T09:03:33;100946.06;;;9.73;100.00
68594;BME280;55563;52.416;13.548;2023-02-21T09:05:34;100954.78;;;9.79;100.00
68594;BME280;55563;52.416;13.548;2023-02-21T09:07:34;100952.31;;;9.94;100.00
68594;BME280;55563;52.416;13.548;2023-02-21T09:09:37;100944.09;;;9.85;100.00
68594;BME280;55563;52.416;13.548;2023-02-21T09:11:38;100951.41;;;10.05;100.00
68594;BME280;55563;52.416;13.548;2023-02-21T09:13:39;100945.41;;;10.10;100.00
68594;BME280;55563;52.416;13.548;2023-02-21T09:15:41;100942.19;;;10.24;100.00
68594;BME280;55563;52.416;13.548;2023-02-21T09:17:42;100947.13;;;10.21;100.00
68594;BME280;55563;52.416;13.548;2023-02-21T09:19:43;100961.97;;;10.10;100.00
68594;BME280;55563;52.416;13.548;2023-02-21T09:21:45;100947.41;;;10.02;100.00
68594;BME280;55563;52.416;13.548;2023-02-21T09:23:46;100947.69;;;10.01;100.00
68594;BME280;55563;52.416;13.548;2023-02-21T09:25:47;100962.59;;;9.95;100.00
68594;BME280;55563;52.416;13.548;2023-02-21T09:27:48;100960.47;;;9.92;100.00
68594;BME280;55563;52.416;13.548;2023-02-21T09:29:49;100968.75;;;9.84;100.00
68594;BME280;55563;52.416;13.548;2023-02-21T09:31:49;100974.31;;;9.88;100.00
68594;BME280;55563;52.416;13.548;2023-02-21T09:33:50;100973.28;;;9.89;100.00
68594;BME280;55563;52.416;13.548;2023-02-21T09:35:51;100980.41;;;9.93;100.00
68594;BME280;55563;52.416;13.548;2023-02-21T09:37:53;100976.16;;;9.87;100.00
68594;BME280;55563;52.416;13.548;2023-02-21T09:39:54;100979.59;;;9.93;100.00
68594;BME280;55563;52.416;13.548;2023-02-21T09:41:55;100972.28;;;9.95;100.00
68594;BME280;55563;52.416;13.548;2023-02-21T09:43:57;100978.22;;;9.85;100.00
68594;BME280;55563;52.416;13.548;2023-02-21T09:46:04;100975.09;;;9.88;100.00
68594;BME280;55563;52.416;13.548;2023-02-21T09:48:12;100978.53;;;9.89;100.00
68594;BME280;55563;52.416;13.548;2023-02-21T09:50:16;100980.69;;;9.92;100.00
68594;BME280;55563;52.416;13.548;2023-02-21T09:52:26;100979.31;;;9.89;100.00
68594;BME280;55563;52.416;13.548;2023-02-21T09:54:33;100984.34;;;9.91;100.00
68594;BME280;55563;52.416;13.548;2023-02-21T09:56:38;100973.66;;;9.97;100.00
68594;BME280;55563;52.416;13.548;2023-02-21T09:58:42;100979.25;;;10.06;100.00
68594;BME280;55563;52.416;13.548;2023-02-21T10:00:44;100980.97;;;9.95;100.00
68594;BME280;55563;52.416;13.548;2023-02-21T10:03:12;100982.91;;;10.05;100.00
68594;BME280;55563;52.416;13.548;2023-02-21T10:05:23;100987.13;;;10.06;100.00
68594;BME280;55563;52.416;13.548;2023-02-21T10:07:56;100988.84;;;10.17;100.00
68594;BME280;55563;52.416;13.548;2023-02-21T10:10:17;100986.66;;;10.31;100.00
68594;BME280;55563;52.416;13.548;2023-02-21T10:15:07;100985.06;;;10.30;100.00
68594;BME280;55563;52.416;13.548;2023-02-21T10:17:37;100988.31;;;10.42;100.00
68594;BME280;55563;52.416;13.548;2023-02-21T10:19:43;100987.38;;;10.53;100.00
68594;BME280;55563;52.416;13.548;2023-02-21T10:21:46;100988.19;;;10.54;100.00
68594;BME280;55563;52.416;13.548;2023-02-21T10:23:49;100993.72;;;10.57;100.00
68594;BME280;55563;52.416;13.548;2023-02-21T10:25:56;100992.81;;;10.73;100.00
68594;BME280;55563;52.416;13.548;2023-02-21T10:27:59;100986.06;;;10.82;100.00
68594;BME280;55563;52.416;13.548;2023-02-21T10:30:05;100983.16;;;10.84;100.00
68594;BME280;55563;52.416;13.548;2023-02-21T10:32:09;100996.88;;;10.86;100.00
68594;BME280;55563;52.416;13.548;2023-02-21T10:34:28;101002.47;;;11.00;100.00
68594;BME280;55563;52.416;13.548;2023-02-21T10:36:29;100998.41;;;10.82;100.00
68594;BME280;55563;52.416;13.548;2023-02-21T10:38:30;101001.16;;;10.97;100.00
68594;BME280;55563;52.416;13.548;2023-02-21T10:40:35;101001.31;;;10.85;100.00
68594;BME280;55563;52.416;13.548;2023-02-21T10:42:41;100993.47;;;10.90;100.00
68594;BME280;55563;52.416;13.548;2023-02-21T10:44:43;101003.72;;;10.87;100.00
68594;BME280;55563;52.416;13.548;2023-02-21T10:46:46;100997.41;;;10.88;100.00
68594;BME280;55563;52.416;13.548;2023-02-21T10:48:51;100995.88;;;10.92;100.00
68594;BME280;55563;52.416;13.548;2023-02-21T10:51:14;101000.13;;;10.98;100.00
68594;BME280;55563;52.416;13.548;2023-02-21T10:53:30;101000.00;;;10.83;100.00
68594;BME280;55563;52.416;13.548;2023-02-21T10:55:31;101006.06;;;10.83;100.00
68594;BME280;55563;52.416;13.548;2023-02-21T10:57:32;101003.00;;;10.97;100.00
68594;BME280;55563;52.416;13.548;2023-02-21T10:59:36;101007.19;;;10.92;100.00
68594;BME280;55563;52.416;13.548;2023-02-21T11:01:42;101000.31;;;10.91;100.00
68594;BME280;55563;52.416;13.548;2023-02-21T11:03:46;101001.22;;;10.75;100.00
68594;BME280;55563;52.416;13.548;2023-02-21T11:05:51;101004.91;;;10.74;100.00
68594;BME280;55563;52.416;13.548;2023-02-21T11:08:04;101004.84;;;10.64;100.00
68594;BME280;55563;52.416;13.548;2023-02-21T11:10:28;100995.94;;;10.70;100.00
68594;BME280;55563;52.416;13.548;2023-02-21T11:12:29;101002.88;;;10.81;100.00
68594;BME280;55563;52.416;13.548;2023-02-21T11:14:32;101005.22;;;10.78;100.00
68594;BME280;55563;52.416;13.548;2023-02-21T11:16:33;101006.13;;;10.62;100.00
68594;BME280;55563;52.416;13.548;2023-02-21T11:18:36;101000.19;;;10.76;100.00